sensor_id;sensor_type;location;lat;lon;timestamp;P1;durP1;ratioP1;P2;durP2;ratioP2
2848;SDS011;59355;52.416;13.412;2023-05-25T00:02:16;12.93;;;9.27;;
2848;SDS011;59355;52.416;13.412;2023-05-25T00:04:41;13.80;;;9.20;;
2848;SDS011;59355;52.416;13.412;2023-05-25T00:07:07;12.30;;;9.17;;
2848;SDS011;59355;52.416;13.412;2023-05-25T00:09:33;13.40;;;8.43;;
2848;SDS011;59355;52.416;13.412;2023-05-25T00:11:59;14.10;;;9.17;;
2848;SDS011;59355;52.416;13.412;2023-05-25T00:14:24;15.70;;;9.80;;
2848;SDS011;59355;52.416;13.412;2023-05-25T00:16:50;12.90;;;7.57;;
2848;SDS011;59355;52.416;13.412;2023-05-25T00:19:15;11.20;;;8.83;;
2848;SDS011;59355;52.416;13.412;2023-05-25T00:21:42;10.87;;;8.20;;
2848;SDS011;59355;52.416;13.412;2023-05-25T00:24:08;11.57;;;8.80;;
2848;SDS011;59355;52.416;13.412;2023-05-25T00:26:33;13.60;;;8.80;;
2848;SDS011;59355;52.416;13.412;2023-05-25T00:28:59;15.73;;;9.70;;
2848;SDS011;59355;52.416;13.412;2023-05-25T00:31:25;18.43;;;10.27;;
2848;SDS011;59355;52.416;13.412;2023-05-25T00:33:51;10.90;;;8.53;;
2848;SDS011;59355;52.416;13.412;2023-05-25T00:36:16;12.90;;;9.00;;
2848;SDS011;59355;52.416;13.412;2023-05-25T00:38:41;12.20;;;9.00;;
2848;SDS011;59355;52.416;13.412;2023-05-25T00:41:07;10.60;;;9.03;;
2848;SDS011;59355;52.416;13.412;2023-05-25T00:43:32;13.10;;;8.50;;
2848;SDS011;59355;52.416;13.412;2023-05-25T00:45:57;15.47;;;9.10;;
2848;SDS011;59355;52.416;13.412;2023-05-25T00:48:24;14.40;;;9.90;;
2848;SDS011;59355;52.416;13.412;2023-05-25T00:50:49;12.73;;;9.43;;
2848;SDS011;59355;52.416;13.412;2023-05-25T00:53:18;14.00;;;8.77;;
2848;SDS011;59355;52.416;13.412;2023-05-25T00:55:44;11.87;;;9.70;;
2848;SDS011;59355;52.416;13.412;2023-05-25T00:58:26;16.23;;;9.63;;
2848;SDS011;59355;52.416;13.412;2023-05-25T01:00:51;8.73;;;7.90;;
2848;SDS011;59355;52.416;13.412;2023-05-25T01:03:20;16.77;;;9.50;;
2848;SDS011;59355;52.416;13.412;2023-05-25T01:05:46;10.30;;;9.20;;
2848;SDS011;59355;52.416;13.412;2023-05-25T01:08:13;11.63;;;8.87;;
2848;SDS011;59355;52.416;13.412;2023-05-25T01:10:38;10.20;;;9.20;;
2848;SDS011;59355;52.416;13.412;2023-05-25T01:13:05;14.40;;;9.43;;
2848;SDS011;59355;52.416;13.412;2023-05-25T01:15:31;14.53;;;10.23;;
2848;SDS011;59355;52.416;13.412;2023-05-25T01:17:56;11.77;;;9.83;;
2848;SDS011;59355;52.416;13.412;2023-05-25T01:20:23;16.23;;;10.57;;
2848;SDS011;59355;52.416;13.412;2023-05-25T01:22:56;20.60;;;9.83;;
2848;SDS011;59355;52.416;13.412;2023-05-25T01:25:27;14.00;;;9.50;;
2848;SDS011;59355;52.416;13.412;2023-05-25T01:27:59;9.67;;;8.63;;
2848;SDS011;59355;52.416;13.412;2023-05-25T01:30:28;15.23;;;9.57;;
2848;SDS011;59355;52.416;13.412;2023-05-25T01:32:56;11.80;;;9.10;;
2848;SDS011;59355;52.416;13.412;2023-05-25T01:35:23;11.80;;;8.90;;
2848;SDS011;59355;52.416;13.412;2023-05-25T01:37:50;12.17;;;9.10;;
2848;SDS011;59355;52.416;13.412;2023-05-25T01:40:15;13.77;;;9.07;;
2848;SDS011;59355;52.416;13.412;2023-05-25T01:42:41;10.37;;;8.50;;
2848;SDS011;59355;52.416;13.412;2023-05-25T01:45:06;12.53;;;8.53;;
2848;SDS011;59355;52.416;13.412;2023-05-25T01:50:25;14.47;;;9.80;;
2848;SDS011;59355;52.416;13.412;2023-05-25T01:52:55;11.93;;;8.30;;
2848;SDS011;59355;52.416;13.412;2023-05-25T01:55:27;12.17;;;9.60;;
2848;SDS011;59355;52.416;13.412;2023-05-25T01:57:55;11.67;;;8.80;;
2848;SDS011;59355;52.416;13.412;2023-05-25T02:00:22;10.43;;;9.13;;
2848;SDS011;59355;52.416;13.412;2023-05-25T02:02:48;15.20;;;8.83;;
2848;SDS011;59355;52.416;13.412;2023-05-25T02:05:15;13.33;;;10.03;;
2848;SDS011;59355;52.416;13.412;2023-05-25T02:07:40;10.83;;;9.37;;
2848;SDS011;59355;52.416;13.412;2023-05-25T02:10:05;12.97;;;8.50;;
2848;SDS011;59355;52.416;13.412;2023-05-25T02:12:31;14.10;;;9.80;;
2848;SDS011;59355;52.416;13.412;2023-05-25T02:14:56;11.00;;;8.50;;
2848;SDS011;59355;52.416;13.412;2023-05-25T02:17:21;12.27;;;10.07;;
2848;SDS011;59355;52.416;13.412;2023-05-25T02:19:51;16.00;;;11.07;;
2848;SDS011;59355;52.416;13.412;2023-05-25T02:22:18;13.23;;;10.27;;
2848;SDS011;59355;52.416;13.412;2023-05-25T02:24:44;11.30;;;8.80;;
2848;SDS011;59355;52.416;13.412;2023-05-25T02:27:10;12.07;;;9.80;;
2848;SDS011;59355;52.416;13.412;2023-05-25T02:29:36;11.37;;;9.70;;
2848;SDS011;59355;52.416;13.412;2023-05-25T02:32:02;11.33;;;8.87;;
2848;SDS011;59355;52.416;13.412;2023-05-25T02:34:27;15.87;;;10.40;;
2848;SDS011;59355;52.416;13.412;2023-05-25T02:36:52;10.87;;;8.83;;
2848;SDS011;59355;52.416;13.412;2023-05-25T02:39:18;12.10;;;9.27;;
2848;SDS011;59355;52.416;13.412;2023-05-25T02:41:43;10.57;;;9.37;;
2848;SDS011;59355;52.416;13.412;2023-05-25T02:44:08;12.73;;;10.07;;
2848;SDS011;59355;52.416;13.412;2023-05-25T02:46:34;12.40;;;10.50;;
2848;SDS011;59355;52.416;13.412;2023-05-25T02:48:59;11.07;;;9.87;;
2848;SDS011;59355;52.416;13.412;2023-05-25T02:51:25;15.23;;;10.60;;
2848;SDS011;59355;52.416;13.412;2023-05-25T02:53:51;11.80;;;9.77;;
2848;SDS011;59355;52.416;13.412;2023-05-25T02:56:16;12.43;;;10.00;;
2848;SDS011;59355;52.416;13.412;2023-05-25T02:58:41;11.83;;;10.53;;
2848;SDS011;59355;52.416;13.412;2023-05-25T03:01:07;12.30;;;9.87;;
2848;SDS011;59355;52.416;13.412;2023-05-25T03:03:34;12.33;;;10.07;;
2848;SDS011;59355;52.416;13.412;2023-05-25T03:06:00;12.57;;;9.70;;
2848;SDS011;59355;52.416;13.412;2023-05-25T03:08:27;13.57;;;10.40;;
2848;SDS011;59355;52.416;13.412;2023-05-25T03:10:53;13.23;;;9.10;;
2848;SDS011;59355;52.416;13.412;2023-05-25T03:13:18;10.10;;;8.87;;
2848;SDS011;59355;52.416;13.412;2023-05-25T03:15:44;13.13;;;10.60;;
2848;SDS011;59355;52.416;13.412;2023-05-25T03:18:09;18.00;;;11.20;;
2848;SDS011;59355;52.416;13.412;2023-05-25T03:20:34;15.77;;;9.50;;
2848;SDS011;59355;52.416;13.412;2023-05-25T03:23:00;14.30;;;9.83;;
2848;SDS011;59355;52.416;13.412;2023-05-25T03:25:25;11.20;;;9.23;;
2848;SDS011;59355;52.416;13.412;2023-05-25T03:27:51;13.40;;;9.70;;
2848;SDS011;59355;52.416;13.412;2023-05-25T03:30:17;17.83;;;11.43;;
2848;SDS011;59355;52.416;13.412;2023-05-25T03:32:43;18.90;;;12.00;;
2848;SDS011;59355;52.416;13.412;2023-05-25T03:35:08;17.73;;;13.30;;
2848;SDS011;59355;52.416;13.412;2023-05-25T03:37:33;20.40;;;12.70;;
2848;SDS011;59355;52.416;13.412;2023-05-25T03:39:59;20.80;;;13.57;;
2848;SDS011;59355;52.416;13.412;2023-05-25T03:42:24;16.50;;;12.60;;
2848;SDS011;59355;52.416;13.412;2023-05-25T03:44:49;16.30;;;12.93;;
2848;SDS011;59355;52.416;13.412;2023-05-25T03:47:15;17.17;;;12.53;;
2848;SDS011;59355;52.416;13.412;2023-05-25T03:49:40;16.07;;;12.23;;
2848;SDS011;59355;52.416;13.412;2023-05-25T03:52:05;17.90;;;13.33;;
2848;SDS011;59355;52.416;13.412;2023-05-25T03:54:31;17.43;;;12.53;;
2848;SDS011;59355;52.416;13.412;2023-05-25T03:56:56;17.40;;;12.77;;
2848;SDS011;59355;52.416;13.412;2023-05-25T03:59:23;16.40;;;12.27;;
2848;SDS011;59355;52.416;13.412;2023-05-25T04:01:49;18.17;;;12.40;;
2848;SDS011;59355;52.416;13.412;2023-05-25T04:04:15;16.97;;;12.33;;
2848;SDS011;59355;52.416;13.412;2023-05-25T04:06:40;19.47;;;11.87;;
2848;SDS011;59355;52.416;13.412;2023-05-25T04:09:06;20.07;;;11.13;;
2848;SDS011;59355;52.416;13.412;2023-05-25T04:11:32;16.13;;;11.60;;
2848;SDS011;59355;52.416;13.412;2023-05-25T04:13:57;15.20;;;11.47;;
2848;SDS011;59355;52.416;13.412;2023-05-25T04:16:23;13.10;;;11.40;;
2848;SDS011;59355;52.416;13.412;2023-05-25T04:18:50;18.93;;;13.33;;
2848;SDS011;59355;52.416;13.412;2023-05-25T04:21:15;13.10;;;11.73;;
2848;SDS011;59355;52.416;13.412;2023-05-25T04:23:40;16.73;;;12.20;;
2848;SDS011;59355;52.416;13.412;2023-05-25T04:26:07;17.17;;;13.37;;
2848;SDS011;59355;52.416;13.412;2023-05-25T04:28:34;24.80;;;12.40;;
2848;SDS011;59355;52.416;13.412;2023-05-25T04:31:00;17.13;;;11.93;;
2848;SDS011;59355;52.416;13.412;2023-05-25T04:33:27;14.97;;;11.73;;
2848;SDS011;59355;52.416;13.412;2023-05-25T04:35:53;17.90;;;12.23;;
2848;SDS011;59355;52.416;13.412;2023-05-25T04:38:20;17.57;;;12.53;;
2848;SDS011;59355;52.416;13.412;2023-05-25T04:40:45;15.40;;;11.57;;
2848;SDS011;59355;52.416;13.412;2023-05-25T04:43:11;15.57;;;11.87;;
2848;SDS011;59355;52.416;13.412;2023-05-25T04:45:37;16.63;;;13.97;;
2848;SDS011;59355;52.416;13.412;2023-05-25T04:48:03;15.53;;;13.07;;
2848;SDS011;59355;52.416;13.412;2023-05-25T04:50:28;18.20;;;12.43;;
2848;SDS011;59355;52.416;13.412;2023-05-25T04:52:54;15.70;;;11.57;;
2848;SDS011;59355;52.416;13.412;2023-05-25T04:55:19;20.73;;;13.30;;
2848;SDS011;59355;52.416;13.412;2023-05-25T04:57:44;26.33;;;13.17;;
2848;SDS011;59355;52.416;13.412;2023-05-25T05:00:11;19.13;;;12.70;;
2848;SDS011;59355;52.416;13.412;2023-05-25T05:02:36;18.10;;;11.50;;
2848;SDS011;59355;52.416;13.412;2023-05-25T05:05:02;17.20;;;11.30;;
2848;SDS011;59355;52.416;13.412;2023-05-25T05:07:27;17.63;;;12.50;;
2848;SDS011;59355;52.416;13.412;2023-05-25T05:09:53;21.50;;;13.50;;
2848;SDS011;59355;52.416;13.412;2023-05-25T05:12:18;21.30;;;13.20;;
2848;SDS011;59355;52.416;13.412;2023-05-25T05:14:43;15.83;;;12.47;;
2848;SDS011;59355;52.416;13.412;2023-05-25T05:17:09;17.27;;;12.30;;
2848;SDS011;59355;52.416;13.412;2023-05-25T05:19:34;21.23;;;13.53;;
2848;SDS011;59355;52.416;13.412;2023-05-25T05:21:59;15.10;;;12.43;;
2848;SDS011;59355;52.416;13.412;2023-05-25T05:24:25;20.93;;;12.53;;
2848;SDS011;59355;52.416;13.412;2023-05-25T05:26:51;20.27;;;13.27;;
2848;SDS011;59355;52.416;13.412;2023-05-25T05:29:16;15.73;;;12.40;;
2848;SDS011;59355;52.416;13.412;2023-05-25T05:31:41;25.70;;;13.93;;
2848;SDS011;59355;52.416;13.412;2023-05-25T05:34:07;22.07;;;13.43;;
2848;SDS011;59355;52.416;13.412;2023-05-25T05:36:32;17.50;;;12.57;;
2848;SDS011;59355;52.416;13.412;2023-05-25T05:38:58;17.93;;;13.10;;
2848;SDS011;59355;52.416;13.412;2023-05-25T05:41:23;18.20;;;12.77;;
2848;SDS011;59355;52.416;13.412;2023-05-25T05:43:49;18.10;;;13.87;;
2848;SDS011;59355;52.416;13.412;2023-05-25T05:46:15;21.93;;;14.73;;
2848;SDS011;59355;52.416;13.412;2023-05-25T05:48:41;21.07;;;15.87;;
2848;SDS011;59355;52.416;13.412;2023-05-25T05:51:06;16.57;;;13.67;;
2848;SDS011;59355;52.416;13.412;2023-05-25T05:53:31;25.60;;;13.77;;
2848;SDS011;59355;52.416;13.412;2023-05-25T05:55:59;21.27;;;14.20;;
2848;SDS011;59355;52.416;13.412;2023-05-25T05:58:24;18.60;;;13.97;;
2848;SDS011;59355;52.416;13.412;2023-05-25T06:00:50;16.07;;;12.67;;
2848;SDS011;59355;52.416;13.412;2023-05-25T06:03:16;16.13;;;12.97;;
2848;SDS011;59355;52.416;13.412;2023-05-25T06:05:42;22.57;;;14.23;;
2848;SDS011;59355;52.416;13.412;2023-05-25T06:08:07;22.67;;;13.93;;
2848;SDS011;59355;52.416;13.412;2023-05-25T06:10:34;22.23;;;13.57;;
2848;SDS011;59355;52.416;13.412;2023-05-25T06:12:59;20.80;;;14.13;;
2848;SDS011;59355;52.416;13.412;2023-05-25T06:15:43;21.20;;;14.60;;
2848;SDS011;59355;52.416;13.412;2023-05-25T06:18:09;17.93;;;13.50;;
2848;SDS011;59355;52.416;13.412;2023-05-25T06:20:34;20.77;;;14.40;;
2848;SDS011;59355;52.416;13.412;2023-05-25T06:22:59;16.33;;;13.00;;
2848;SDS011;59355;52.416;13.412;2023-05-25T06:25:25;19.83;;;12.00;;
2848;SDS011;59355;52.416;13.412;2023-05-25T06:27:50;19.50;;;13.20;;
2848;SDS011;59355;52.416;13.412;2023-05-25T06:30:16;21.20;;;13.30;;
2848;SDS011;59355;52.416;13.412;2023-05-25T06:32:41;17.97;;;12.20;;
2848;SDS011;59355;52.416;13.412;2023-05-25T06:35:07;18.13;;;12.40;;
2848;SDS011;59355;52.416;13.412;2023-05-25T06:37:33;18.63;;;12.83;;
2848;SDS011;59355;52.416;13.412;2023-05-25T06:40:02;23.20;;;12.37;;
2848;SDS011;59355;52.416;13.412;2023-05-25T06:42:29;20.00;;;13.93;;
2848;SDS011;59355;52.416;13.412;2023-05-25T06:44:54;18.80;;;12.87;;
2848;SDS011;59355;52.416;13.412;2023-05-25T06:47:19;15.30;;;12.33;;
2848;SDS011;59355;52.416;13.412;2023-05-25T06:49:45;18.57;;;12.13;;
2848;SDS011;59355;52.416;13.412;2023-05-25T06:52:10;19.87;;;12.13;;
2848;SDS011;59355;52.416;13.412;2023-05-25T06:54:36;16.33;;;11.53;;
2848;SDS011;59355;52.416;13.412;2023-05-25T06:57:01;16.20;;;11.50;;
2848;SDS011;59355;52.416;13.412;2023-05-25T06:59:26;36.63;;;32.50;;
2848;SDS011;59355;52.416;13.412;2023-05-25T07:01:52;12.90;;;9.50;;
2848;SDS011;59355;52.416;13.412;2023-05-25T07:04:17;16.80;;;9.90;;
2848;SDS011;59355;52.416;13.412;2023-05-25T07:06:43;15.40;;;9.97;;
2848;SDS011;59355;52.416;13.412;2023-05-25T07:09:08;13.57;;;8.83;;
2848;SDS011;59355;52.416;13.412;2023-05-25T07:11:34;14.60;;;9.60;;
2848;SDS011;59355;52.416;13.412;2023-05-25T07:13:59;14.60;;;9.80;;
2848;SDS011;59355;52.416;13.412;2023-05-25T07:16:24;12.10;;;8.30;;
2848;SDS011;59355;52.416;13.412;2023-05-25T07:18:50;14.30;;;8.20;;
2848;SDS011;59355;52.416;13.412;2023-05-25T07:21:15;12.57;;;7.40;;
2848;SDS011;59355;52.416;13.412;2023-05-25T07:23:41;10.60;;;7.80;;
2848;SDS011;59355;52.416;13.412;2023-05-25T07:26:06;13.20;;;7.03;;
2848;SDS011;59355;52.416;13.412;2023-05-25T07:28:32;11.73;;;6.53;;
2848;SDS011;59355;52.416;13.412;2023-05-25T07:30:57;15.63;;;7.73;;
2848;SDS011;59355;52.416;13.412;2023-05-25T07:33:22;17.90;;;7.47;;
2848;SDS011;59355;52.416;13.412;2023-05-25T07:35:47;16.97;;;6.67;;
2848;SDS011;59355;52.416;13.412;2023-05-25T07:38:13;14.17;;;6.47;;
2848;SDS011;59355;52.416;13.412;2023-05-25T07:40:38;10.10;;;6.20;;
2848;SDS011;59355;52.416;13.412;2023-05-25T07:43:03;10.23;;;6.20;;
2848;SDS011;59355;52.416;13.412;2023-05-25T07:45:29;11.80;;;6.67;;
2848;SDS011;59355;52.416;13.412;2023-05-25T07:47:54;12.70;;;6.53;;
2848;SDS011;59355;52.416;13.412;2023-05-25T07:50:20;12.07;;;5.97;;
2848;SDS011;59355;52.416;13.412;2023-05-25T07:52:45;13.87;;;6.93;;
2848;SDS011;59355;52.416;13.412;2023-05-25T07:55:10;14.40;;;6.00;;
2848;SDS011;59355;52.416;13.412;2023-05-25T07:57:36;13.90;;;6.53;;
2848;SDS011;59355;52.416;13.412;2023-05-25T08:00:01;9.50;;;5.90;;
2848;SDS011;59355;52.416;13.412;2023-05-25T08:02:30;13.93;;;5.40;;
2848;SDS011;59355;52.416;13.412;2023-05-25T08:04:55;9.83;;;6.43;;
2848;SDS011;59355;52.416;13.412;2023-05-25T08:07:20;12.60;;;5.53;;
2848;SDS011;59355;52.416;13.412;2023-05-25T08:09:46;14.37;;;6.30;;
2848;SDS011;59355;52.416;13.412;2023-05-25T08:12:11;13.30;;;6.57;;
2848;SDS011;59355;52.416;13.412;2023-05-25T08:14:36;10.40;;;4.90;;
2848;SDS011;59355;52.416;13.412;2023-05-25T08:17:02;11.13;;;5.57;;
2848;SDS011;59355;52.416;13.412;2023-05-25T08:19:28;10.83;;;5.77;;
2848;SDS011;59355;52.416;13.412;2023-05-25T08:21:55;11.80;;;6.40;;
2848;SDS011;59355;52.416;13.412;2023-05-25T08:24:20;9.47;;;5.13;;
2848;SDS011;59355;52.416;13.412;2023-05-25T08:26:46;8.83;;;4.50;;
2848;SDS011;59355;52.416;13.412;2023-05-25T08:29:12;16.27;;;14.73;;
2848;SDS011;59355;52.416;13.412;2023-05-25T08:31:37;7.10;;;4.67;;
2848;SDS011;59355;52.416;13.412;2023-05-25T08:34:03;5.87;;;4.90;;
2848;SDS011;59355;52.416;13.412;2023-05-25T08:36:28;8.77;;;4.80;;
2848;SDS011;59355;52.416;13.412;2023-05-25T08:38:53;8.43;;;5.20;;
2848;SDS011;59355;52.416;13.412;2023-05-25T08:41:19;9.73;;;5.27;;
2848;SDS011;59355;52.416;13.412;2023-05-25T08:43:45;11.50;;;5.70;;
2848;SDS011;59355;52.416;13.412;2023-05-25T08:46:10;8.43;;;5.03;;
2848;SDS011;59355;52.416;13.412;2023-05-25T08:48:36;8.20;;;5.37;;
2848;SDS011;59355;52.416;13.412;2023-05-25T08:51:09;9.03;;;5.60;;
2848;SDS011;59355;52.416;13.412;2023-05-25T08:53:36;8.03;;;5.40;;
2848;SDS011;59355;52.416;13.412;2023-05-25T08:56:04;7.57;;;6.00;;
2848;SDS011;59355;52.416;13.412;2023-05-25T08:58:33;9.70;;;5.80;;
2848;SDS011;59355;52.416;13.412;2023-05-25T09:01:04;10.43;;;5.90;;
2848;SDS011;59355;52.416;13.412;2023-05-25T09:03:32;11.63;;;5.90;;
2848;SDS011;59355;52.416;13.412;2023-05-25T09:05:57;10.07;;;5.40;;
2848;SDS011;59355;52.416;13.412;2023-05-25T09:08:23;6.80;;;4.93;;
2848;SDS011;59355;52.416;13.412;2023-05-25T09:10:49;11.37;;;4.60;;
2848;SDS011;59355;52.416;13.412;2023-05-25T09:13:16;13.60;;;6.03;;
2848;SDS011;59355;52.416;13.412;2023-05-25T09:15:41;14.13;;;5.43;;
2848;SDS011;59355;52.416;13.412;2023-05-25T09:18:07;9.07;;;4.83;;
2848;SDS011;59355;52.416;13.412;2023-05-25T09:20:33;9.20;;;5.67;;
2848;SDS011;59355;52.416;13.412;2023-05-25T09:22:58;13.10;;;6.33;;
2848;SDS011;59355;52.416;13.412;2023-05-25T09:25:24;10.57;;;5.80;;
2848;SDS011;59355;52.416;13.412;2023-05-25T09:27:51;8.70;;;5.87;;
2848;SDS011;59355;52.416;13.412;2023-05-25T09:30:16;8.90;;;5.77;;
2848;SDS011;59355;52.416;13.412;2023-05-25T09:32:41;9.53;;;5.83;;
2848;SDS011;59355;52.416;13.412;2023-05-25T09:35:08;11.27;;;5.80;;
2848;SDS011;59355;52.416;13.412;2023-05-25T09:37:34;9.40;;;6.03;;
2848;SDS011;59355;52.416;13.412;2023-05-25T09:40:01;8.07;;;5.43;;
2848;SDS011;59355;52.416;13.412;2023-05-25T09:42:26;8.90;;;5.63;;
2848;SDS011;59355;52.416;13.412;2023-05-25T09:44:51;8.83;;;5.67;;
2848;SDS011;59355;52.416;13.412;2023-05-25T09:47:17;7.87;;;5.67;;
2848;SDS011;59355;52.416;13.412;2023-05-25T09:49:43;15.30;;;5.80;;
2848;SDS011;59355;52.416;13.412;2023-05-25T09:52:11;12.70;;;5.70;;
2848;SDS011;59355;52.416;13.412;2023-05-25T09:54:36;10.90;;;5.63;;
2848;SDS011;59355;52.416;13.412;2023-05-25T09:57:04;9.43;;;5.83;;
2848;SDS011;59355;52.416;13.412;2023-05-25T09:59:30;11.60;;;5.90;;
2848;SDS011;59355;52.416;13.412;2023-05-25T10:01:56;10.53;;;6.37;;
2848;SDS011;59355;52.416;13.412;2023-05-25T10:04:22;12.63;;;6.40;;
2848;SDS011;59355;52.416;13.412;2023-05-25T10:06:47;12.17;;;6.47;;
2848;SDS011;59355;52.416;13.412;2023-05-25T10:09:18;12.33;;;6.87;;
2848;SDS011;59355;52.416;13.412;2023-05-25T10:11:44;8.77;;;6.43;;
2848;SDS011;59355;52.416;13.412;2023-05-25T10:14:09;21.43;;;7.47;;
2848;SDS011;59355;52.416;13.412;2023-05-25T10:16:38;11.00;;;6.67;;
2848;SDS011;59355;52.416;13.412;2023-05-25T10:19:05;10.40;;;6.40;;
2848;SDS011;59355;52.416;13.412;2023-05-25T10:21:34;10.27;;;6.40;;
2848;SDS011;59355;52.416;13.412;2023-05-25T10:24:03;9.13;;;5.90;;
2848;SDS011;59355;52.416;13.412;2023-05-25T10:26:31;11.10;;;6.37;;
2848;SDS011;59355;52.416;13.412;2023-05-25T10:28:58;13.87;;;7.70;;
2848;SDS011;59355;52.416;13.412;2023-05-25T10:31:25;10.10;;;6.70;;
2848;SDS011;59355;52.416;13.412;2023-05-25T10:33:53;11.40;;;7.50;;
2848;SDS011;59355;52.416;13.412;2023-05-25T10:36:19;11.73;;;6.93;;
2848;SDS011;59355;52.416;13.412;2023-05-25T10:38:45;10.13;;;7.27;;
2848;SDS011;59355;52.416;13.412;2023-05-25T10:41:11;11.23;;;6.50;;
2848;SDS011;59355;52.416;13.412;2023-05-25T10:43:39;9.47;;;6.73;;
2848;SDS011;59355;52.416;13.412;2023-05-25T10:46:05;11.97;;;6.83;;
2848;SDS011;59355;52.416;13.412;2023-05-25T10:48:34;7.73;;;6.20;;
2848;SDS011;59355;52.416;13.412;2023-05-25T10:51:00;11.33;;;6.57;;
2848;SDS011;59355;52.416;13.412;2023-05-25T10:53:25;11.53;;;7.10;;
2848;SDS011;59355;52.416;13.412;2023-05-25T10:58:16;10.07;;;7.03;;
2848;SDS011;59355;52.416;13.412;2023-05-25T11:00:42;11.33;;;6.17;;
2848;SDS011;59355;52.416;13.412;2023-05-25T11:03:21;13.10;;;6.10;;
2848;SDS011;59355;52.416;13.412;2023-05-25T11:05:49;7.90;;;6.10;;
2848;SDS011;59355;52.416;13.412;2023-05-25T11:08:15;11.50;;;6.83;;
2848;SDS011;59355;52.416;13.412;2023-05-25T11:19:00;7.40;;;6.60;;
2848;SDS011;59355;52.416;13.412;2023-05-25T11:26:32;8.20;;;6.43;;
2848;SDS011;59355;52.416;13.412;2023-05-25T11:28:58;10.33;;;7.40;;
2848;SDS011;59355;52.416;13.412;2023-05-25T11:31:28;11.43;;;7.03;;
2848;SDS011;59355;52.416;13.412;2023-05-25T11:33:57;10.43;;;7.00;;
2848;SDS011;59355;52.416;13.412;2023-05-25T11:36:24;6.27;;;5.63;;
2848;SDS011;59355;52.416;13.412;2023-05-25T11:38:51;11.70;;;7.07;;
2848;SDS011;59355;52.416;13.412;2023-05-25T11:41:22;11.23;;;7.33;;
2848;SDS011;59355;52.416;13.412;2023-05-25T11:43:48;15.67;;;8.83;;
2848;SDS011;59355;52.416;13.412;2023-05-25T11:46:15;10.43;;;6.57;;
2848;SDS011;59355;52.416;13.412;2023-05-25T11:48:44;14.40;;;7.37;;
2848;SDS011;59355;52.416;13.412;2023-05-25T11:51:11;11.33;;;7.17;;
2848;SDS011;59355;52.416;13.412;2023-05-25T11:53:42;11.13;;;6.90;;
2848;SDS011;59355;52.416;13.412;2023-05-25T11:56:12;10.03;;;6.73;;
2848;SDS011;59355;52.416;13.412;2023-05-25T11:58:38;10.60;;;6.53;;
2848;SDS011;59355;52.416;13.412;2023-05-25T12:03:43;10.50;;;7.60;;
2848;SDS011;59355;52.416;13.412;2023-05-25T12:06:21;9.70;;;6.90;;
2848;SDS011;59355;52.416;13.412;2023-05-25T12:08:48;10.03;;;7.00;;
2848;SDS011;59355;52.416;13.412;2023-05-25T12:11:13;9.87;;;7.13;;
2848;SDS011;59355;52.416;13.412;2023-05-25T12:13:39;9.73;;;7.17;;
2848;SDS011;59355;52.416;13.412;2023-05-25T12:16:04;7.93;;;5.80;;
2848;SDS011;59355;52.416;13.412;2023-05-25T12:18:30;9.83;;;7.00;;
2848;SDS011;59355;52.416;13.412;2023-05-25T12:20:55;10.37;;;6.80;;
2848;SDS011;59355;52.416;13.412;2023-05-25T12:23:21;11.50;;;7.23;;
2848;SDS011;59355;52.416;13.412;2023-05-25T12:25:46;9.83;;;6.60;;
2848;SDS011;59355;52.416;13.412;2023-05-25T12:28:13;10.87;;;7.17;;
2848;SDS011;59355;52.416;13.412;2023-05-25T12:30:39;10.00;;;7.50;;
2848;SDS011;59355;52.416;13.412;2023-05-25T12:33:05;6.93;;;6.13;;
2848;SDS011;59355;52.416;13.412;2023-05-25T12:35:44;8.60;;;6.20;;
2848;SDS011;59355;52.416;13.412;2023-05-25T12:40:41;7.70;;;5.70;;
2848;SDS011;59355;52.416;13.412;2023-05-25T12:43:07;12.17;;;6.70;;
2848;SDS011;59355;52.416;13.412;2023-05-25T12:45:32;13.93;;;7.80;;
2848;SDS011;59355;52.416;13.412;2023-05-25T12:47:57;9.33;;;6.90;;
2848;SDS011;59355;52.416;13.412;2023-05-25T12:50:23;9.03;;;7.17;;
2848;SDS011;59355;52.416;13.412;2023-05-25T12:52:48;6.63;;;5.87;;
2848;SDS011;59355;52.416;13.412;2023-05-25T12:57:52;11.23;;;6.93;;
2848;SDS011;59355;52.416;13.412;2023-05-25T13:00:22;9.47;;;6.37;;
2848;SDS011;59355;52.416;13.412;2023-05-25T13:02:49;8.07;;;7.10;;
2848;SDS011;59355;52.416;13.412;2023-05-25T13:05:19;9.37;;;7.20;;
2848;SDS011;59355;52.416;13.412;2023-05-25T13:07:48;11.17;;;9.00;;
2848;SDS011;59355;52.416;13.412;2023-05-25T13:10:14;10.87;;;8.63;;
2848;SDS011;59355;52.416;13.412;2023-05-25T13:12:46;11.60;;;8.30;;
2848;SDS011;59355;52.416;13.412;2023-05-25T13:15:14;15.77;;;9.47;;
2848;SDS011;59355;52.416;13.412;2023-05-25T13:17:45;10.83;;;8.60;;
2848;SDS011;59355;52.416;13.412;2023-05-25T13:20:11;10.53;;;7.93;;
2848;SDS011;59355;52.416;13.412;2023-05-25T13:22:37;12.37;;;8.30;;
2848;SDS011;59355;52.416;13.412;2023-05-25T13:25:03;11.60;;;8.40;;
2848;SDS011;59355;52.416;13.412;2023-05-25T13:27:28;9.77;;;7.50;;
2848;SDS011;59355;52.416;13.412;2023-05-25T13:29:54;10.40;;;9.13;;
2848;SDS011;59355;52.416;13.412;2023-05-25T13:32:19;11.97;;;6.67;;
2848;SDS011;59355;52.416;13.412;2023-05-25T13:34:44;10.00;;;7.43;;
2848;SDS011;59355;52.416;13.412;2023-05-25T13:37:09;10.40;;;8.87;;
2848;SDS011;59355;52.416;13.412;2023-05-25T13:39:35;11.43;;;7.90;;
2848;SDS011;59355;52.416;13.412;2023-05-25T13:42:00;10.57;;;7.50;;
2848;SDS011;59355;52.416;13.412;2023-05-25T13:44:26;9.50;;;8.00;;
2848;SDS011;59355;52.416;13.412;2023-05-25T13:46:51;14.13;;;8.57;;
2848;SDS011;59355;52.416;13.412;2023-05-25T13:49:16;10.30;;;7.80;;
2848;SDS011;59355;52.416;13.412;2023-05-25T13:51:43;9.77;;;8.60;;
2848;SDS011;59355;52.416;13.412;2023-05-25T13:54:08;15.10;;;8.60;;
2848;SDS011;59355;52.416;13.412;2023-05-25T13:56:36;13.93;;;8.87;;
2848;SDS011;59355;52.416;13.412;2023-05-25T13:59:01;10.97;;;7.83;;
2848;SDS011;59355;52.416;13.412;2023-05-25T14:01:27;9.17;;;7.63;;
2848;SDS011;59355;52.416;13.412;2023-05-25T14:03:52;9.53;;;6.70;;
2848;SDS011;59355;52.416;13.412;2023-05-25T14:06:17;9.77;;;7.53;;
2848;SDS011;59355;52.416;13.412;2023-05-25T14:08:43;11.80;;;8.20;;
2848;SDS011;59355;52.416;13.412;2023-05-25T14:11:08;9.93;;;7.37;;
2848;SDS011;59355;52.416;13.412;2023-05-25T14:13:33;14.10;;;8.23;;
2848;SDS011;59355;52.416;13.412;2023-05-25T14:16:00;12.63;;;8.97;;
2848;SDS011;59355;52.416;13.412;2023-05-25T14:18:27;9.70;;;8.20;;
2848;SDS011;59355;52.416;13.412;2023-05-25T14:20:52;14.07;;;9.00;;
2848;SDS011;59355;52.416;13.412;2023-05-25T14:23:17;12.97;;;8.40;;
2848;SDS011;59355;52.416;13.412;2023-05-25T14:25:43;13.33;;;8.27;;
2848;SDS011;59355;52.416;13.412;2023-05-25T14:28:08;9.23;;;8.00;;
2848;SDS011;59355;52.416;13.412;2023-05-25T14:30:34;9.27;;;7.50;;
2848;SDS011;59355;52.416;13.412;2023-05-25T14:32:59;10.40;;;7.70;;
2848;SDS011;59355;52.416;13.412;2023-05-25T14:35:24;10.87;;;7.70;;
2848;SDS011;59355;52.416;13.412;2023-05-25T14:37:50;11.17;;;7.93;;
2848;SDS011;59355;52.416;13.412;2023-05-25T14:40:15;12.53;;;7.90;;
2848;SDS011;59355;52.416;13.412;2023-05-25T14:42:40;10.77;;;7.40;;
2848;SDS011;59355;52.416;13.412;2023-05-25T14:45:06;8.43;;;7.40;;
2848;SDS011;59355;52.416;13.412;2023-05-25T14:47:31;9.73;;;6.37;;
2848;SDS011;59355;52.416;13.412;2023-05-25T14:49:56;7.73;;;6.63;;
2848;SDS011;59355;52.416;13.412;2023-05-25T14:52:22;7.23;;;6.50;;
2848;SDS011;59355;52.416;13.412;2023-05-25T14:54:47;7.83;;;6.53;;